createdAt,value
2023-03-03T00:03:12.359Z,67.80
2023-03-03T00:07:29.508Z,77.90
2023-03-03T00:11:49.986Z,62.63
2023-03-03T00:16:15.107Z,59.55
2023-03-03T00:20:40.125Z,58.00
2023-03-03T00:25:21.043Z,58.00
2023-03-03T00:29:44.988Z,71.45
2023-03-03T00:34:20.203Z,67.97
2023-03-03T00:38:37.340Z,64.22
2023-03-03T00:42:57.692Z,59.72
2023-03-03T00:47:32.728Z,66.95
2023-03-03T00:51:49.927Z,74.35
2023-03-03T00:56:07.239Z,62.30
2023-03-03T01:00:24.359Z,63.00
2023-03-03T01:04:43.478Z,65.53
2023-03-03T01:09:00.747Z,77.38
2023-03-03T01:13:20.473Z,60.38
2023-03-03T01:17:39.845Z,87.68
2023-03-03T01:21:57.075Z,71.80
2023-03-03T01:26:14.351Z,83.53
2023-03-03T01:30:32.398Z,90.28
2023-03-03T01:34:49.642Z,64.30
2023-03-03T01:39:06.714Z,81.80
2023-03-03T01:43:27.576Z,81.18
2023-03-03T01:47:53.681Z,68.10
2023-03-03T01:52:35.848Z,77.20
2023-03-03T01:56:55.906Z,74.15
2023-03-03T02:01:19.023Z,75.00
2023-03-03T02:05:36.878Z,54.90
2023-03-03T02:10:07.938Z,60.67
2023-03-03T02:14:25.217Z,61.97
2023-03-03T02:18:42.497Z,62.90
2023-03-03T02:23:15.972Z,59.97
2023-03-03T02:27:33.881Z,54.85
2023-03-03T02:31:51.133Z,68.43
2023-03-03T02:36:12.779Z,66.33
2023-03-03T02:40:33.265Z,62.90
2023-03-03T02:44:50.449Z,54.53
2023-03-03T02:49:10.505Z,56.03
2023-03-03T02:53:27.620Z,59.83
2023-03-03T02:57:44.707Z,55.10
2023-03-03T03:02:01.870Z,55.88
2023-03-03T03:06:19.685Z,54.47
2023-03-03T03:10:37.065Z,50.08
2023-03-03T03:14:54.137Z,52.00
2023-03-03T03:19:11.228Z,44.83
2023-03-03T03:23:28.411Z,49.33
2023-03-03T03:27:45.482Z,55.17
2023-03-03T03:32:02.606Z,55.63
2023-03-03T03:36:20.395Z,54.28
2023-03-03T03:40:37.840Z,57.63
2023-03-03T03:44:54.940Z,53.90
2023-03-03T03:49:12.122Z,50.95
2023-03-03T03:53:29.398Z,55.83
2023-03-03T03:57:46.465Z,48.45
2023-03-03T04:02:03.739Z,50.92
2023-03-03T04:06:20.911Z,46.43
2023-03-03T04:10:38.058Z,41.38
2023-03-03T04:14:55.199Z,51.17
2023-03-03T04:19:12.305Z,46.63
2023-03-03T04:23:29.353Z,62.40
2023-03-03T04:27:46.510Z,58.15
2023-03-03T04:32:03.647Z,54.05
2023-03-03T04:36:21.454Z,56.08
2023-03-03T04:40:41.785Z,58.88
2023-03-03T04:44:59.016Z,51.88
2023-03-03T04:49:16.115Z,53.92
2023-03-03T04:53:33.256Z,51.30
2023-03-03T04:57:50.379Z,47.15
2023-03-03T05:02:07.505Z,57.03
2023-03-03T05:06:24.684Z,51.25
2023-03-03T05:10:41.755Z,53.00
2023-03-03T05:14:58.870Z,49.47
2023-03-03T05:19:16.220Z,49.20
2023-03-03T05:23:33.382Z,48.83
2023-03-03T05:27:50.533Z,50.73
2023-03-03T05:32:07.772Z,47.10
2023-03-03T05:36:25.151Z,45.30
2023-03-03T05:40:43.732Z,45.50
2023-03-03T05:45:00.838Z,47.63
2023-03-03T05:49:18.274Z,46.77
2023-03-03T05:53:35.449Z,44.80
2023-03-03T05:57:52.538Z,45.33
2023-03-03T06:02:09.809Z,43.37
2023-03-03T06:06:28.184Z,50.67
2023-03-03T06:10:45.259Z,49.45
2023-03-03T06:15:02.358Z,51.25
2023-03-03T06:19:19.456Z,48.67
2023-03-03T06:23:36.533Z,54.22
2023-03-03T06:27:53.902Z,46.22
2023-03-03T06:32:11.509Z,44.23
2023-03-03T06:36:28.723Z,44.17
2023-03-03T06:40:46.948Z,42.65
2023-03-03T06:45:04.523Z,42.38
2023-03-03T06:49:21.602Z,48.22
2023-03-03T06:53:38.728Z,46.00
2023-03-03T06:57:55.947Z,51.70
2023-03-03T07:02:17.641Z,50.83
2023-03-03T07:06:35.161Z,49.00
2023-03-03T07:10:53.018Z,43.90
2023-03-03T07:15:15.855Z,43.90
2023-03-03T07:19:36.354Z,43.83
2023-03-03T07:23:54.278Z,43.55
2023-03-03T07:28:23.083Z,44.13
2023-03-03T07:32:43.599Z,43.70
2023-03-03T07:37:13.240Z,45.03
2023-03-03T07:41:30.978Z,44.40
2023-03-03T07:45:48.105Z,42.78
2023-03-03T07:50:16.498Z,43.45
2023-03-03T07:58:53.121Z,39.42
2023-03-03T08:03:18.382Z,35.83
2023-03-03T08:07:36.645Z,33.05
2023-03-03T08:11:57.794Z,30.02
2023-03-03T08:16:14.889Z,27.85
2023-03-03T08:20:34.955Z,25.13
2023-03-03T08:24:52.056Z,26.38
2023-03-03T08:29:09.324Z,25.63
2023-03-03T08:33:26.429Z,22.97
2023-03-03T08:37:43.503Z,21.60
2023-03-03T08:42:00.637Z,19.50
2023-03-03T08:46:17.757Z,19.90
2023-03-03T08:50:34.920Z,20.63
2023-03-03T08:54:52.174Z,12.98
2023-03-03T08:59:09.256Z,19.17
2023-03-03T09:03:26.435Z,18.85
2023-03-03T09:07:47.791Z,22.38
2023-03-03T09:12:17.247Z,23.50
2023-03-03T09:16:39.190Z,21.30
2023-03-03T09:20:59.337Z,20.92
2023-03-03T09:25:31.723Z,19.88
2023-03-03T09:29:49.075Z,20.25
2023-03-03T09:34:23.662Z,20.23
2023-03-03T09:38:45.622Z,23.75
2023-03-03T09:43:24.747Z,23.52
2023-03-03T09:48:20.042Z,23.75
2023-03-03T09:52:46.278Z,24.58
2023-03-03T09:57:14.517Z,23.45
2023-03-03T10:01:59.905Z,27.45
2023-03-03T10:06:27.175Z,23.08
2023-03-03T10:10:56.602Z,22.30
2023-03-03T10:15:46.760Z,19.02
2023-03-03T10:20:50.755Z,17.92
2023-03-03T10:25:16.251Z,17.77
2023-03-03T10:29:43.708Z,18.50
2023-03-03T10:34:27.375Z,18.35
2023-03-03T10:39:13.814Z,18.65
2023-03-03T10:43:49.319Z,17.52
2023-03-03T10:48:38.784Z,18.42
2023-03-03T10:53:03.895Z,19.42
2023-03-03T10:57:55.253Z,20.08
2023-03-03T11:02:32.111Z,17.15
2023-03-03T11:07:22.410Z,19.35
2023-03-03T11:11:58.891Z,18.83
2023-03-03T11:16:30.542Z,20.52
2023-03-03T11:21:05.575Z,25.02
2023-03-03T11:25:44.175Z,24.20
2023-03-03T11:30:26.069Z,28.00
2023-03-03T11:35:07.725Z,34.97
2023-03-03T11:39:27.613Z,28.55
2023-03-03T11:43:56.378Z,28.25
2023-03-03T11:48:35.975Z,27.10
2023-03-03T11:53:13.698Z,28.73
2023-03-03T11:57:48.246Z,33.05
2023-03-03T12:02:44.016Z,32.65
2023-03-03T12:07:23.483Z,32.28
2023-03-03T12:11:55.544Z,33.17
2023-03-03T12:16:31.158Z,33.38
2023-03-03T12:21:08.515Z,31.92
2023-03-03T12:25:42.621Z,31.90
2023-03-03T12:30:13.315Z,34.60
2023-03-03T12:34:59.599Z,34.28
2023-03-03T12:39:35.717Z,34.75
2023-03-03T12:44:18.045Z,36.20
2023-03-03T12:48:43.680Z,32.17
2023-03-03T12:53:17.877Z,33.20
2023-03-03T12:58:02.791Z,30.83
2023-03-03T13:02:35.163Z,29.10
2023-03-03T13:07:14.714Z,29.67
2023-03-03T13:11:42.579Z,33.13
2023-03-03T13:16:10.229Z,30.33
2023-03-03T13:20:42.539Z,30.90
2023-03-03T13:25:24.960Z,28.02
2023-03-03T13:29:48.822Z,25.20
2023-03-03T13:34:08.716Z,23.73
2023-03-03T13:38:30.438Z,25.67
2023-03-03T13:42:52.705Z,29.52
2023-03-03T13:47:27.331Z,31.17
2023-03-03T13:51:51.281Z,32.72
2023-03-03T13:56:32.278Z,52.92
2023-03-03T14:00:57.637Z,38.58
2023-03-03T14:05:22.704Z,34.03
2023-03-03T14:09:57.852Z,30.98
2023-03-03T14:14:45.209Z,38.92
2023-03-03T14:19:17.424Z,33.28
2023-03-03T14:24:03.303Z,33.70
2023-03-03T14:28:23.517Z,34.00
2023-03-03T14:32:45.732Z,32.22
2023-03-03T14:37:27.660Z,28.48
2023-03-03T14:41:44.868Z,28.25
2023-03-03T14:46:33.565Z,29.67
2023-03-03T14:50:58.989Z,28.03
2023-03-03T14:55:34.579Z,28.30
2023-03-03T15:00:00.557Z,27.50
2023-03-03T15:04:17.669Z,28.75
2023-03-03T15:08:37.153Z,27.60
2023-03-03T15:12:54.837Z,27.50
2023-03-03T15:17:20.709Z,26.90
2023-03-03T15:21:57.562Z,29.45
2023-03-03T15:26:45.563Z,28.77
2023-03-03T15:31:37.835Z,26.77
2023-03-03T15:36:25.543Z,29.00
2023-03-03T15:40:54.136Z,26.67
2023-03-03T15:50:23.026Z,27.50
2023-03-03T15:54:48.473Z,28.27
2023-03-03T15:59:45.069Z,27.05
2023-03-03T16:04:14.415Z,27.30
2023-03-03T16:08:48.461Z,28.52
2023-03-03T16:13:36.256Z,27.65
2023-03-03T16:18:03.976Z,29.70
2023-03-03T16:22:32.458Z,29.25
2023-03-03T16:27:13.346Z,30.77
2023-03-03T16:31:57.739Z,30.90
2023-03-03T16:36:17.725Z,31.73
2023-03-03T16:40:55.601Z,31.05
2023-03-03T16:45:28.965Z,30.90
2023-03-03T16:49:55.850Z,30.02
2023-03-03T16:54:34.613Z,30.48
2023-03-03T16:59:44.914Z,29.75
2023-03-03T17:04:35.884Z,29.75
2023-03-03T17:09:09.485Z,30.35
2023-03-03T17:13:44.994Z,29.08
2023-03-03T17:18:28.778Z,30.02
2023-03-03T17:23:00.975Z,31.98
2023-03-03T17:27:48.705Z,36.15
2023-03-03T17:32:15.276Z,35.53
2023-03-03T17:37:10.503Z,32.92
2023-03-03T17:41:49.263Z,33.28
2023-03-03T17:46:20.002Z,34.55
2023-03-03T17:51:07.358Z,33.38
2023-03-03T17:55:53.572Z,35.60
2023-03-03T18:00:31.912Z,34.08
2023-03-03T18:05:07.906Z,34.47
2023-03-03T18:09:32.667Z,35.45
2023-03-03T18:14:15.732Z,35.78
2023-03-03T18:18:54.303Z,35.97
2023-03-03T18:23:29.926Z,35.22
2023-03-03T18:28:15.654Z,36.17
2023-03-03T18:32:57.131Z,42.85
2023-03-03T18:37:41.830Z,40.92
2023-03-03T18:42:38.056Z,36.95
2023-03-03T18:46:56.053Z,37.95
2023-03-03T18:51:39.074Z,37.50
2023-03-03T18:55:58.550Z,37.10
2023-03-03T19:00:29.205Z,36.33
2023-03-03T19:05:18.282Z,36.55
2023-03-03T19:10:01.392Z,35.38
2023-03-03T19:14:31.355Z,38.80
2023-03-03T19:18:53.942Z,37.25
2023-03-03T19:23:18.250Z,34.63
2023-03-03T19:28:01.530Z,46.80
2023-03-03T19:32:21.530Z,45.25
2023-03-03T19:36:59.773Z,37.20
2023-03-03T19:41:40.315Z,34.97
2023-03-03T19:46:29.623Z,28.83
2023-03-03T19:55:24.787Z,26.60
2023-03-03T20:00:00.273Z,29.65
2023-03-03T20:04:52.240Z,28.17
2023-03-03T20:09:33.344Z,28.77
2023-03-03T20:14:08.068Z,35.25
2023-03-03T20:18:40.181Z,29.98
2023-03-03T20:23:22.316Z,29.98
2023-03-03T20:28:02.693Z,29.85
2023-03-03T20:32:52.992Z,28.83
2023-03-03T20:37:21.521Z,29.35
2023-03-03T20:46:29.000Z,31.98
2023-03-03T20:51:05.378Z,31.85
2023-03-03T20:55:52.320Z,32.83
2023-03-03T21:00:22.815Z,30.58
2023-03-03T21:04:40.004Z,28.02
2023-03-03T21:08:57.698Z,25.27
2023-03-03T21:13:41.279Z,25.52
2023-03-03T21:17:59.619Z,19.38
2023-03-03T21:22:17.126Z,18.08
2023-03-03T21:26:44.242Z,19.27
2023-03-03T21:31:10.059Z,18.85
2023-03-03T21:35:27.197Z,18.58
2023-03-03T21:39:44.478Z,18.10
2023-03-03T21:44:01.592Z,18.87
2023-03-03T21:48:18.692Z,17.92
2023-03-03T21:52:35.766Z,17.63
2023-03-03T21:56:53.454Z,18.80
2023-03-03T22:01:10.658Z,18.48
2023-03-03T22:05:27.740Z,18.15
2023-03-03T22:09:44.811Z,18.33
2023-03-03T22:14:02.213Z,17.63
2023-03-03T22:18:20.176Z,18.37
2023-03-03T22:22:37.254Z,18.98
2023-03-03T22:26:54.320Z,18.90
2023-03-03T22:31:11.417Z,17.60
2023-03-03T22:35:28.535Z,18.33
2023-03-03T22:39:45.632Z,17.00
2023-03-03T22:44:02.707Z,19.05
2023-03-03T22:48:19.799Z,20.52
2023-03-03T22:52:36.980Z,19.58
2023-03-03T22:56:54.069Z,20.25
2023-03-03T23:01:11.190Z,19.88
2023-03-03T23:05:28.315Z,20.52
2023-03-03T23:09:45.396Z,20.95
2023-03-03T23:14:02.485Z,21.88
2023-03-03T23:18:19.640Z,19.83
2023-03-03T23:22:36.862Z,20.05
2023-03-03T23:26:57.494Z,20.63
2023-03-03T23:31:14.622Z,21.05
2023-03-03T23:35:31.794Z,18.87
2023-03-03T23:39:48.971Z,19.85
2023-03-03T23:44:06.245Z,18.98
2023-03-03T23:48:23.305Z,19.17
2023-03-03T23:52:40.533Z,18.33
2023-03-03T23:56:58.002Z,19.13
